createdAt,value
2019-04-21T00:02:32.248Z,28.63
2019-04-21T00:05:24.967Z,22.90
2019-04-21T00:07:49.413Z,25.60
2019-04-21T00:10:06.111Z,26.07
2019-04-21T00:12:22.601Z,26.40
2019-04-21T00:14:40.961Z,23.17
2019-04-21T00:17:00.547Z,25.40
2019-04-21T00:19:20.824Z,26.43
2019-04-21T00:21:50.967Z,22.00
2019-04-21T00:24:30.507Z,33.10
2019-04-21T00:26:53.183Z,23.47
2019-04-21T00:29:16.405Z,25.27
2019-04-21T00:31:34.138Z,27.00
2019-04-21T00:33:36.819Z,21.93
2019-04-21T00:36:00.770Z,27.43
2019-04-21T00:38:48.977Z,30.17
2019-04-21T00:43:46.126Z,23.13
2019-04-21T00:46:11.980Z,24.60
2019-04-21T00:48:44.079Z,20.13
2019-04-21T00:51:16.941Z,23.10
2019-04-21T00:53:30.065Z,28.17
2019-04-21T00:56:06.805Z,25.07
2019-04-21T00:58:30.060Z,30.00
2019-04-21T01:01:09.010Z,30.27
2019-04-21T01:03:47.431Z,25.00
2019-04-21T01:06:18.302Z,24.07
2019-04-21T01:08:55.728Z,20.13
2019-04-21T01:11:31.512Z,29.03
2019-04-21T01:14:05.483Z,23.63
2019-04-21T01:16:46.136Z,29.53
2019-04-21T01:19:06.318Z,27.80
2019-04-21T01:21:14.021Z,24.13
2019-04-21T01:23:29.759Z,19.90
2019-04-21T01:26:13.339Z,41.60
2019-04-21T01:28:49.511Z,25.00
2019-04-21T01:31:22.955Z,24.00
2019-04-21T01:33:50.846Z,23.60
2019-04-21T01:36:14.472Z,31.33
2019-04-21T01:38:48.150Z,25.60
2019-04-21T01:41:21.375Z,35.60
2019-04-21T01:43:33.701Z,25.73
2019-04-21T01:45:53.987Z,24.70
2019-04-21T01:48:12.584Z,23.70
2019-04-21T01:50:53.853Z,22.73
2019-04-21T01:53:17.662Z,25.50
2019-04-21T01:56:24.042Z,25.43
2019-04-21T01:58:53.914Z,24.17
2019-04-21T02:01:18.224Z,36.00
2019-04-21T02:04:00.130Z,31.33
2019-04-21T02:06:45.157Z,34.00
2019-04-21T02:09:09.722Z,23.90
2019-04-21T02:12:08.815Z,25.23
2019-04-21T02:15:25.004Z,27.50
2019-04-21T02:17:02.083Z,27.90
2019-04-21T02:19:16.686Z,24.53
2019-04-21T02:22:12.551Z,27.87
2019-04-21T02:24:47.973Z,27.60
2019-04-21T02:27:04.684Z,29.43
2019-04-21T02:29:20.647Z,31.63
2019-04-21T02:32:37.587Z,30.70
2019-04-21T02:35:15.889Z,36.20
2019-04-21T02:39:49.005Z,32.10
2019-04-21T02:42:41.620Z,40.10
2019-04-21T02:47:50.904Z,31.40
2019-04-21T02:50:20.412Z,25.83
2019-04-21T02:55:22.276Z,27.47
2019-04-21T02:57:59.973Z,27.87
2019-04-21T03:03:54.450Z,36.33
2019-04-21T03:06:29.161Z,40.93
2019-04-21T03:11:44.738Z,28.80
2019-04-21T03:14:16.458Z,29.87
2019-04-21T03:16:32.994Z,26.77
2019-04-21T03:19:06.961Z,27.67
2019-04-21T03:21:32.428Z,31.67
2019-04-21T03:23:58.352Z,31.33
2019-04-21T03:28:37.726Z,30.53
2019-04-21T03:34:18.517Z,29.53
2019-04-21T03:46:34.242Z,33.07
2019-04-21T03:53:46.263Z,30.80
2019-04-21T03:56:16.029Z,31.37
2019-04-21T04:06:09.563Z,31.83
2019-04-21T04:11:29.707Z,35.30
2019-04-21T04:16:49.092Z,33.17
2019-04-21T04:18:58.670Z,35.30
2019-04-21T04:21:47.678Z,39.03
2019-04-21T04:26:22.436Z,37.27
2019-04-21T04:29:06.257Z,38.60
2019-04-21T04:33:55.626Z,33.00
2019-04-21T04:36:37.319Z,33.67
2019-04-21T04:41:53.018Z,38.00
2019-04-21T04:44:03.241Z,31.17
2019-04-21T04:46:41.565Z,43.03
2019-04-21T04:49:10.648Z,31.33
2019-04-21T04:51:47.429Z,30.03
2019-04-21T04:53:53.060Z,31.20
2019-04-21T04:56:23.010Z,32.63
2019-04-21T04:58:59.553Z,34.23
2019-04-21T05:01:08.641Z,32.83
2019-04-21T05:06:47.464Z,32.20
2019-04-21T05:09:07.843Z,33.70
2019-04-21T05:13:44.671Z,34.17
2019-04-21T05:16:36.168Z,36.17
2019-04-21T05:19:32.720Z,32.80
2019-04-21T05:21:24.419Z,32.57
2019-04-21T05:23:47.147Z,29.27
2019-04-21T05:26:43.298Z,31.70
2019-04-21T05:29:37.773Z,31.53
2019-04-21T05:32:39.567Z,40.43
2019-04-21T05:34:57.037Z,35.03
2019-04-21T05:37:47.320Z,32.53
2019-04-21T05:41:08.444Z,28.20
2019-04-21T05:43:07.993Z,28.83
2019-04-21T05:46:13.731Z,32.80
2019-04-21T05:48:52.540Z,30.73
2019-04-21T05:51:00.466Z,35.63
2019-04-21T05:56:51.235Z,29.97
2019-04-21T05:59:17.765Z,36.40
2019-04-21T06:01:46.369Z,30.53
2019-04-21T06:04:20.480Z,33.33
2019-04-21T06:06:59.876Z,31.63
2019-04-21T06:14:37.516Z,29.40
2019-04-21T06:17:35.063Z,27.63
2019-04-21T06:19:52.781Z,25.07
2019-04-21T06:22:23.973Z,28.87
2019-04-21T06:25:53.024Z,30.77
2019-04-21T06:27:40.684Z,36.20
2019-04-21T06:30:03.416Z,35.57
2019-04-21T06:32:52.768Z,31.03
2019-04-21T06:47:50.155Z,25.50
2019-04-21T06:53:03.947Z,33.83
2019-04-21T06:55:40.241Z,25.30
2019-04-21T06:58:00.590Z,35.13
2019-04-21T07:00:37.309Z,24.53
2019-04-21T07:03:29.457Z,28.73
2019-04-21T07:05:52.088Z,30.30
2019-04-21T07:08:32.574Z,28.67
2019-04-21T07:10:37.249Z,30.80
2019-04-21T07:13:25.108Z,28.80
2019-04-21T07:15:43.438Z,31.60
2019-04-21T07:18:05.633Z,24.70
2019-04-21T07:20:24.463Z,28.17
2019-04-21T07:23:13.455Z,27.93
2019-04-21T07:28:05.680Z,26.93
2019-04-21T07:30:51.535Z,21.87
2019-04-21T07:36:01.353Z,23.50
2019-04-21T07:38:50.413Z,25.70
2019-04-21T07:40:58.539Z,26.20
2019-04-21T07:43:17.692Z,25.13
2019-04-21T07:45:40.766Z,27.63
2019-04-21T07:48:28.915Z,36.83
2019-04-21T07:50:57.453Z,28.03
2019-04-21T07:53:42.378Z,27.13
2019-04-21T07:55:32.524Z,21.73
2019-04-21T07:58:02.626Z,35.00
2019-04-21T08:03:21.455Z,28.07
2019-04-21T08:11:51.806Z,24.30
2019-04-21T08:14:35.615Z,30.33
2019-04-21T08:17:10.502Z,31.63
2019-04-21T08:19:53.614Z,29.47
2019-04-21T08:22:41.260Z,29.47
2019-04-21T08:25:21.395Z,24.67
2019-04-21T08:30:36.235Z,27.63
2019-04-21T08:36:11.335Z,27.70
2019-04-21T08:38:42.635Z,30.53
2019-04-21T08:44:05.009Z,28.00
2019-04-21T08:46:39.135Z,27.73
2019-04-21T08:49:22.239Z,32.37
2019-04-21T08:54:26.428Z,27.10
2019-04-21T08:57:35.706Z,30.53
2019-04-21T09:00:16.803Z,29.33
2019-04-21T09:02:46.687Z,25.10
2019-04-21T09:08:46.150Z,26.20
2019-04-21T09:11:16.303Z,28.93
2019-04-21T09:14:01.156Z,33.83
2019-04-21T09:17:00.170Z,30.63
2019-04-21T09:19:51.851Z,21.40
2019-04-21T09:22:24.431Z,30.37
2019-04-21T09:25:33.375Z,23.77
2019-04-21T09:28:02.263Z,35.40
2019-04-21T09:30:55.907Z,28.43
2019-04-21T09:33:00.199Z,27.33
2019-04-21T09:35:40.693Z,23.67
2019-04-21T09:38:36.271Z,26.17
2019-04-21T09:41:54.423Z,23.63
2019-04-21T09:44:36.515Z,22.40
2019-04-21T09:47:03.773Z,23.90
2019-04-21T09:49:29.667Z,23.30
2019-04-21T09:51:57.432Z,30.50
2019-04-21T09:54:26.559Z,27.53
2019-04-21T09:57:21.906Z,21.87
2019-04-21T09:59:40.672Z,23.00
2019-04-21T10:02:13.317Z,28.23
2019-04-21T10:04:40.776Z,34.43
2019-04-21T10:07:51.065Z,23.37
2019-04-21T10:10:29.935Z,25.10
2019-04-21T10:12:52.108Z,22.47
2019-04-21T10:15:31.596Z,26.40
2019-04-21T10:18:09.031Z,25.20
2019-04-21T10:20:46.914Z,17.70
2019-04-21T10:23:31.665Z,21.07
2019-04-21T10:26:28.457Z,30.43
2019-04-21T10:29:09.323Z,27.40
2019-04-21T10:31:53.078Z,27.07
2019-04-21T10:34:43.791Z,19.47
2019-04-21T10:40:00.088Z,20.00
2019-04-21T10:42:40.857Z,28.63
2019-04-21T10:45:19.031Z,20.57
2019-04-21T10:48:23.105Z,14.67
2019-04-21T10:51:17.080Z,15.43
2019-04-21T10:53:55.961Z,19.43
2019-04-21T10:56:35.220Z,22.57
2019-04-21T10:59:10.044Z,31.07
2019-04-21T11:01:52.735Z,26.27
2019-04-21T11:11:09.973Z,21.67
2019-04-21T11:17:10.146Z,22.80
2019-04-21T11:19:48.737Z,18.57
2019-04-21T11:22:51.295Z,18.87
2019-04-21T11:25:33.718Z,15.10
2019-04-21T11:28:08.976Z,16.50
2019-04-21T11:30:25.885Z,18.47
2019-04-21T11:33:09.333Z,15.73
2019-04-21T11:35:45.504Z,18.10
2019-04-21T11:38:54.290Z,18.70
2019-04-21T11:40:58.109Z,19.10
2019-04-21T11:43:37.050Z,21.20
2019-04-21T11:46:52.159Z,17.23
2019-04-21T11:49:27.604Z,19.20
2019-04-21T12:01:51.803Z,21.90
2019-04-21T12:04:17.975Z,27.90
2019-04-21T12:07:25.139Z,27.70
2019-04-21T12:10:01.627Z,20.57
2019-04-21T12:12:43.257Z,34.83
2019-04-21T12:18:52.386Z,20.70
2019-04-21T12:22:31.610Z,27.13
2019-04-21T12:24:19.343Z,19.10
2019-04-21T12:27:06.008Z,15.63
2019-04-21T12:29:22.844Z,12.23
2019-04-21T12:32:46.230Z,12.57
2019-04-21T12:35:23.872Z,25.27
2019-04-21T12:38:13.089Z,17.77
2019-04-21T12:40:42.189Z,20.57
2019-04-21T12:43:40.219Z,19.80
2019-04-21T12:46:29.850Z,9.10
2019-04-21T12:52:15.597Z,12.90
2019-04-21T12:54:51.475Z,11.63
2019-04-21T12:57:25.534Z,11.10
2019-04-21T13:00:18.540Z,10.80
2019-04-21T13:03:09.882Z,14.23
2019-04-21T13:08:17.666Z,12.10
2019-04-21T13:11:09.349Z,17.67
2019-04-21T13:13:43.896Z,14.33
2019-04-21T13:16:01.158Z,18.43
2019-04-21T13:18:39.454Z,22.30
2019-04-21T13:21:03.618Z,13.00
2019-04-21T13:26:35.824Z,14.50
2019-04-21T13:29:02.840Z,10.23
2019-04-21T13:31:28.366Z,14.13
2019-04-21T13:34:22.382Z,10.10
2019-04-21T13:36:41.317Z,18.37
2019-04-21T13:39:38.273Z,15.53
2019-04-21T13:44:37.379Z,17.40
2019-04-21T13:46:49.240Z,110.90
2019-04-21T13:49:29.736Z,76.97
2019-04-21T13:52:02.685Z,23.47
2019-04-21T13:54:37.885Z,75.63
2019-04-21T13:59:42.463Z,28.83
2019-04-21T14:02:07.070Z,24.03
2019-04-21T14:04:35.681Z,7.73
2019-04-21T14:06:52.220Z,35.57
2019-04-21T14:09:47.679Z,53.30
2019-04-21T14:12:07.687Z,94.10
2019-04-21T14:14:50.416Z,26.37
2019-04-21T14:17:22.456Z,35.30
2019-04-21T14:23:10.295Z,33.43
2019-04-21T14:25:35.318Z,25.30
2019-04-21T14:31:02.239Z,9.67
2019-04-21T14:36:22.990Z,13.43
2019-04-21T14:39:08.299Z,12.30
2019-04-21T14:44:38.871Z,14.67
2019-04-21T14:47:29.453Z,17.60
2019-04-21T14:53:38.119Z,18.23
2019-04-21T14:59:35.394Z,16.33
2019-04-21T15:02:07.742Z,8.07
2019-04-21T15:04:43.842Z,6.83
2019-04-21T15:07:13.520Z,6.67
2019-04-21T15:09:43.245Z,6.20
2019-04-21T15:12:18.253Z,5.37
2019-04-21T15:15:00.142Z,5.80
2019-04-21T15:17:07.054Z,5.80
2019-04-21T15:19:34.844Z,5.67
2019-04-21T15:22:10.599Z,5.37
2019-04-21T15:25:21.832Z,10.47
2019-04-21T15:27:20.966Z,7.80
2019-04-21T15:30:00.574Z,7.43
2019-04-21T15:32:40.127Z,8.10
2019-04-21T15:35:13.115Z,9.03
2019-04-21T15:40:50.531Z,5.20
2019-04-21T15:41:22.659Z,13.60
2019-04-21T15:44:09.752Z,13.80
2019-04-21T15:46:35.309Z,6.07
2019-04-21T15:49:51.753Z,6.87
2019-04-21T15:57:27.972Z,6.40
2019-04-21T16:02:56.722Z,6.90
2019-04-21T16:05:44.592Z,12.07
2019-04-21T16:08:35.218Z,8.13
2019-04-21T16:11:17.659Z,7.47
2019-04-21T16:14:11.612Z,15.47
2019-04-21T16:20:21.790Z,5.93
2019-04-21T16:22:54.706Z,6.10
2019-04-21T16:25:50.751Z,11.90
2019-04-21T16:28:29.150Z,8.20
2019-04-21T16:31:06.766Z,10.93
2019-04-21T16:34:45.323Z,17.00
2019-04-21T16:40:05.385Z,10.50
2019-04-21T16:43:04.334Z,10.30
2019-04-21T16:47:19.426Z,11.03
2019-04-21T16:48:39.834Z,9.43
2019-04-21T16:51:31.792Z,18.77
2019-04-21T16:54:10.936Z,9.03
2019-04-21T16:56:57.599Z,6.40
2019-04-21T16:59:52.649Z,9.53
2019-04-21T17:02:52.435Z,12.93
2019-04-21T17:05:26.232Z,6.37
2019-04-21T17:08:36.830Z,9.93
2019-04-21T17:11:06.206Z,7.20
2019-04-21T17:13:54.012Z,14.40
2019-04-21T17:17:02.923Z,12.27
2019-04-21T17:19:29.945Z,10.53
2019-04-21T17:21:51.965Z,8.77
2019-04-21T17:26:57.418Z,7.30
2019-04-21T17:29:54.777Z,24.83
2019-04-21T17:32:43.306Z,10.37
2019-04-21T17:35:10.159Z,7.37
2019-04-21T17:38:03.980Z,18.20
2019-04-21T17:42:11.785Z,7.13
2019-04-21T17:44:43.366Z,8.83
2019-04-21T17:47:39.885Z,10.77
2019-04-21T17:50:45.511Z,9.20
2019-04-21T17:59:56.843Z,7.17
2019-04-21T18:02:38.508Z,8.97
2019-04-21T18:05:27.520Z,14.27
2019-04-21T18:07:56.779Z,11.53
2019-04-21T18:10:34.815Z,9.97
2019-04-21T18:13:19.536Z,11.23
2019-04-21T18:16:23.057Z,7.53
2019-04-21T18:22:43.529Z,20.67
2019-04-21T18:25:50.485Z,27.37
2019-04-21T18:28:48.576Z,27.83
2019-04-21T18:31:26.535Z,25.80
2019-04-21T18:34:33.873Z,23.20
2019-04-21T18:37:32.637Z,32.40
2019-04-21T18:40:05.318Z,22.40
2019-04-21T18:43:50.268Z,27.30
2019-04-21T18:46:35.909Z,17.50
2019-04-21T18:49:06.717Z,18.10
2019-04-21T18:58:50.888Z,25.73
2019-04-21T19:01:20.625Z,22.47
2019-04-21T19:04:04.286Z,27.23
2019-04-21T19:06:48.427Z,26.37
2019-04-21T19:09:35.585Z,38.80
2019-04-21T19:13:20.127Z,36.80
2019-04-21T19:15:27.249Z,28.83
2019-04-21T19:18:32.591Z,32.13
2019-04-21T19:20:51.897Z,29.63
2019-04-21T19:23:08.465Z,26.10
2019-04-21T19:26:11.298Z,35.57
2019-04-21T19:28:52.603Z,34.27
2019-04-21T19:31:38.559Z,40.07
2019-04-21T19:34:05.897Z,36.53
2019-04-21T19:37:20.926Z,39.70
2019-04-21T19:40:04.730Z,38.27
2019-04-21T19:43:29.426Z,44.27
2019-04-21T19:45:20.584Z,38.70
2019-04-21T19:47:36.708Z,37.50
2019-04-21T19:49:49.487Z,44.77
2019-04-21T19:51:51.448Z,36.07
2019-04-21T19:53:53.802Z,34.83
2019-04-21T19:55:54.097Z,32.70
2019-04-21T19:57:58.918Z,33.10
2019-04-21T20:00:04.293Z,36.87
2019-04-21T20:02:18.684Z,38.03
2019-04-21T20:04:31.719Z,31.73
2019-04-21T20:06:45.590Z,42.23
2019-04-21T20:08:49.874Z,35.70
2019-04-21T20:11:01.252Z,55.57
2019-04-21T20:13:14.635Z,48.20
2019-04-21T20:15:35.855Z,40.83
2019-04-21T20:17:42.431Z,45.40
2019-04-21T20:20:22.641Z,40.73
2019-04-21T20:22:36.865Z,43.40
2019-04-21T20:25:09.826Z,45.30
2019-04-21T20:27:17.652Z,64.27
2019-04-21T20:29:32.466Z,48.83
2019-04-21T20:31:44.558Z,47.20
2019-04-21T20:35:59.298Z,52.37
2019-04-21T20:37:57.577Z,57.67
2019-04-21T20:39:55.817Z,44.33
2019-04-21T20:42:16.615Z,49.10
2019-04-21T20:44:24.827Z,55.87
2019-04-21T20:46:37.151Z,50.23
2019-04-21T20:48:42.264Z,48.87
2019-04-21T20:50:41.810Z,59.20
2019-04-21T20:52:59.048Z,61.20
2019-04-21T20:55:04.870Z,69.87
2019-04-21T20:57:21.705Z,83.20
2019-04-21T20:59:28.656Z,80.67
2019-04-21T21:01:39.782Z,115.73
2019-04-21T21:03:50.516Z,108.37
2019-04-21T21:05:51.437Z,125.43
2019-04-21T21:08:05.143Z,138.10
2019-04-21T21:10:10.674Z,110.80
2019-04-21T21:14:25.195Z,101.43
2019-04-21T21:16:45.058Z,99.90
2019-04-21T21:19:00.868Z,109.20
2019-04-21T21:20:49.632Z,101.93
2019-04-21T21:22:55.160Z,111.30
2019-04-21T21:25:03.060Z,102.97
2019-04-21T21:27:09.799Z,92.53
2019-04-21T21:29:20.767Z,99.47
2019-04-21T21:31:25.070Z,86.00
2019-04-21T21:33:46.631Z,87.27
2019-04-21T21:35:39.540Z,75.63
2019-04-21T21:37:49.006Z,76.03
2019-04-21T21:39:57.242Z,73.57
2019-04-21T21:41:51.753Z,66.00
2019-04-21T21:44:01.832Z,85.00
2019-04-21T21:46:01.595Z,71.37
2019-04-21T21:48:21.726Z,69.97
2019-04-21T21:50:23.640Z,80.63
2019-04-21T21:52:39.799Z,73.33
2019-04-21T21:54:31.835Z,76.47
2019-04-21T21:56:36.486Z,67.93
2019-04-21T21:58:42.900Z,64.20
2019-04-21T22:00:52.880Z,79.47
2019-04-21T22:02:56.903Z,76.20
2019-04-21T22:05:08.705Z,85.57
2019-04-21T22:07:09.730Z,81.63
2019-04-21T22:09:12.541Z,74.23
2019-04-21T22:11:17.978Z,72.70
2019-04-21T22:13:31.866Z,68.77
2019-04-21T22:15:30.338Z,81.00
2019-04-21T22:17:51.145Z,87.20
2019-04-21T22:20:03.066Z,83.77
2019-04-21T22:22:08.359Z,104.77
2019-04-21T22:23:58.066Z,89.97
2019-04-21T22:26:01.196Z,97.83
2019-04-21T22:28:15.742Z,108.37
2019-04-21T22:30:31.707Z,116.57
2019-04-21T22:32:34.966Z,102.23
2019-04-21T22:34:48.719Z,103.30
2019-04-21T22:37:01.482Z,96.27
2019-04-21T22:39:17.605Z,93.20
2019-04-21T22:41:16.499Z,102.70
2019-04-21T22:43:19.800Z,96.47
2019-04-21T22:45:17.571Z,104.10
2019-04-21T22:47:31.638Z,121.53
2019-04-21T22:49:30.601Z,116.43
2019-04-21T22:51:38.330Z,103.60
2019-04-21T22:53:46.824Z,103.97
2019-04-21T22:55:49.549Z,97.13
2019-04-21T22:57:56.961Z,84.47
2019-04-21T23:00:01.794Z,81.37
2019-04-21T23:02:13.864Z,96.13
2019-04-21T23:04:14.498Z,82.37
2019-04-21T23:06:28.694Z,83.03
2019-04-21T23:08:36.772Z,85.20
2019-04-21T23:10:49.609Z,79.83
2019-04-21T23:12:52.171Z,81.73
2019-04-21T23:15:04.367Z,81.27
2019-04-21T23:17:26.636Z,74.70
2019-04-21T23:19:24.016Z,85.00
2019-04-21T23:21:30.372Z,74.57
2019-04-21T23:23:44.088Z,93.93
2019-04-21T23:26:07.564Z,101.03
2019-04-21T23:28:20.906Z,92.47
2019-04-21T23:30:38.876Z,90.67
2019-04-21T23:32:36.247Z,93.87
2019-04-21T23:34:45.938Z,86.97
2019-04-21T23:37:06.603Z,86.63
2019-04-21T23:39:13.169Z,94.43
2019-04-21T23:41:17.248Z,89.40
2019-04-21T23:43:26.364Z,83.93
2019-04-21T23:45:34.019Z,89.23
2019-04-21T23:47:44.215Z,95.07
2019-04-21T23:49:50.549Z,89.33
2019-04-21T23:51:54.922Z,79.63
2019-04-21T23:53:53.295Z,72.53
2019-04-21T23:56:01.200Z,76.73
2019-04-21T23:58:14.370Z,80.47
